createdAt,value
2017-07-31T00:00:33.961Z,99.99
2017-07-31T00:01:33.635Z,99.99
2017-07-31T00:02:33.950Z,99.99
2017-07-31T00:03:33.620Z,99.99
2017-07-31T00:04:33.929Z,99.99
2017-07-31T00:05:33.599Z,99.99
2017-07-31T00:06:33.902Z,99.99
2017-07-31T00:07:33.579Z,99.99
2017-07-31T00:08:33.568Z,99.99
2017-07-31T00:09:33.562Z,99.99
2017-07-31T00:10:33.869Z,99.99
2017-07-31T00:11:33.855Z,99.99
2017-07-31T00:12:33.848Z,99.99
2017-07-31T00:13:33.864Z,99.99
2017-07-31T00:14:33.512Z,99.99
2017-07-31T00:15:33.506Z,99.99
2017-07-31T00:16:33.804Z,99.99
2017-07-31T00:17:33.798Z,99.99
2017-07-31T00:18:33.785Z,99.99
2017-07-31T00:19:33.464Z,99.99
2017-07-31T00:20:33.768Z,99.99
2017-07-31T00:21:33.450Z,99.99
2017-07-31T00:22:33.435Z,99.99
2017-07-31T00:23:33.741Z,99.99
2017-07-31T00:24:33.727Z,99.99
2017-07-31T00:25:33.717Z,99.99
2017-07-31T00:26:33.709Z,99.99
2017-07-31T00:27:33.697Z,99.99
2017-07-31T00:28:33.689Z,99.99
2017-07-31T00:29:33.680Z,99.99
2017-07-31T00:30:33.667Z,99.99
2017-07-31T00:31:33.656Z,99.99
2017-07-31T00:32:33.651Z,99.99
2017-07-31T00:33:33.327Z,99.99
2017-07-31T00:34:33.315Z,99.99
2017-07-31T00:35:33.311Z,99.99
2017-07-31T00:36:33.609Z,99.99
2017-07-31T00:37:33.598Z,99.99
2017-07-31T00:38:33.596Z,99.99
2017-07-31T00:39:33.586Z,99.99
2017-07-31T00:40:33.576Z,99.99
2017-07-31T00:41:33.560Z,99.99
2017-07-31T00:42:33.575Z,99.99
2017-07-31T00:43:33.231Z,99.99
2017-07-31T00:44:33.533Z,99.99
2017-07-31T00:45:33.519Z,99.99
2017-07-31T00:46:33.516Z,99.99
2017-07-31T00:47:33.197Z,99.99
2017-07-31T00:48:33.492Z,99.99
2017-07-31T00:49:33.176Z,99.99
2017-07-31T00:50:33.472Z,99.99
2017-07-31T00:51:33.462Z,99.99
2017-07-31T00:52:33.458Z,99.99
2017-07-31T00:53:33.444Z,99.99
2017-07-31T00:54:33.431Z,99.99
2017-07-31T00:55:33.445Z,99.99
2017-07-31T00:56:33.414Z,99.99
2017-07-31T00:57:33.091Z,99.99
2017-07-31T00:58:33.082Z,99.99
2017-07-31T00:59:33.073Z,99.99
2017-07-31T01:00:33.059Z,99.99
2017-07-31T01:01:33.366Z,99.99
2017-07-31T01:02:33.044Z,99.99
2017-07-31T01:03:33.342Z,99.99
2017-07-31T01:04:33.334Z,99.99
2017-07-31T01:05:33.327Z,99.99
2017-07-31T01:06:33.315Z,99.99
2017-07-31T01:07:32.997Z,99.99
2017-07-31T01:08:33.296Z,99.99
2017-07-31T01:09:33.289Z,99.99
2017-07-31T01:10:33.276Z,99.99
2017-07-31T01:11:33.265Z,99.1
2017-07-31T01:12:33.255Z,99.3
2017-07-31T01:13:33.248Z,98.53
2017-07-31T01:14:33.230Z,98.34
2017-07-31T01:15:33.225Z,97.96
2017-07-31T01:16:33.217Z,97.76
2017-07-31T01:17:32.890Z,97.57
2017-07-31T01:18:33.194Z,97.76
2017-07-31T01:19:33.184Z,97.19
2017-07-31T01:20:32.865Z,97.57
2017-07-31T01:21:33.167Z,97.38
2017-07-31T01:22:32.845Z,97.28
2017-07-31T01:23:33.148Z,97.96
2017-07-31T01:24:33.133Z,98.05
2017-07-31T01:25:33.128Z,97.47
2017-07-31T01:26:32.805Z,96.61
2017-07-31T01:27:32.794Z,96.8
2017-07-31T01:28:32.786Z,96.99
2017-07-31T01:29:33.090Z,97.28
2017-07-31T01:30:33.073Z,96.85
2017-07-31T01:31:33.069Z,97.14
2017-07-31T01:32:33.057Z,97.71
2017-07-31T01:33:32.739Z,97.81
2017-07-31T01:34:32.727Z,97.14
2017-07-31T01:35:32.714Z,97.81
2017-07-31T01:36:33.018Z,97.33
2017-07-31T01:37:32.694Z,97.52
2017-07-31T01:38:32.685Z,97.33
2017-07-31T01:39:32.985Z,97.24
2017-07-31T01:40:32.980Z,97.04
2017-07-31T01:41:32.650Z,97.33
2017-07-31T01:42:32.957Z,97.19
2017-07-31T01:43:32.942Z,97.19
2017-07-31T01:44:32.620Z,96.13
2017-07-31T01:45:32.615Z,95.46
2017-07-31T01:46:32.913Z,94.79
2017-07-31T01:47:32.903Z,94.69
2017-07-31T01:48:32.576Z,94.98
2017-07-31T01:49:32.887Z,94.21
2017-07-31T01:50:32.873Z,94.69
2017-07-31T01:51:32.863Z,94.69
2017-07-31T01:52:32.854Z,95.07
2017-07-31T01:53:32.529Z,94.49
2017-07-31T01:54:32.829Z,94.12
2017-07-31T01:55:32.822Z,94.31
2017-07-31T01:56:32.815Z,94.88
2017-07-31T01:57:32.801Z,94.4
2017-07-31T01:58:32.786Z,93.06
2017-07-31T01:59:32.780Z,92.91
2017-07-31T02:00:32.456Z,93.11
2017-07-31T02:01:32.448Z,93.54
2017-07-31T02:02:32.754Z,93.25
2017-07-31T02:03:32.735Z,94.12
2017-07-31T02:04:32.736Z,93.78
2017-07-31T02:05:32.715Z,93.88
2017-07-31T02:06:32.391Z,93.59
2017-07-31T02:07:32.693Z,93.59
2017-07-31T02:08:32.684Z,93.97
2017-07-31T02:09:32.674Z,93.59
2017-07-31T02:10:32.663Z,93.88
2017-07-31T02:11:32.651Z,93.4
2017-07-31T02:12:32.330Z,93.3
2017-07-31T02:13:32.318Z,92.82
2017-07-31T02:14:32.621Z,93.3
2017-07-31T02:15:32.296Z,92.82
2017-07-31T02:16:32.598Z,92.54
2017-07-31T02:17:32.274Z,92.72
2017-07-31T02:18:32.577Z,92.63
2017-07-31T02:19:32.256Z,92.44
2017-07-31T02:20:32.245Z,92.82
2017-07-31T02:21:32.546Z,92.24
2017-07-31T02:22:32.537Z,91.09
2017-07-31T02:23:32.523Z,91.09
2017-07-31T02:24:32.512Z,90.61
2017-07-31T02:25:32.503Z,90.42
2017-07-31T02:26:32.500Z,91.28
2017-07-31T02:27:32.368Z,91.19
2017-07-31T02:28:32.158Z,91.09
2017-07-31T02:29:32.455Z,91.19
2017-07-31T02:30:32.451Z,90.76
2017-07-31T02:31:32.174Z,90.81
2017-07-31T02:32:32.426Z,90.42
2017-07-31T02:33:32.101Z,90.61
2017-07-31T02:34:32.406Z,90.67
2017-07-31T02:35:32.081Z,90.47
2017-07-31T02:36:32.388Z,90
2017-07-31T02:37:32.060Z,89.8
2017-07-31T02:38:32.360Z,89.42
2017-07-31T02:39:32.348Z,89.71
2017-07-31T02:40:32.336Z,89.42
2017-07-31T02:41:32.012Z,88.65
2017-07-31T02:42:32.005Z,87.98
2017-07-31T02:43:31.994Z,87.79
2017-07-31T02:44:32.294Z,87.21
2017-07-31T02:45:32.298Z,86.83
2017-07-31T02:46:32.270Z,86.93
2017-07-31T02:47:32.261Z,86.45
2017-07-31T02:48:32.258Z,85.97
2017-07-31T02:49:32.237Z,85.39
2017-07-31T02:50:32.231Z,86.07
2017-07-31T02:51:32.213Z,85.3
2017-07-31T02:52:32.208Z,85.49
2017-07-31T02:53:32.208Z,85.39
2017-07-31T02:54:32.184Z,83.76
2017-07-31T02:55:31.859Z,84.15
2017-07-31T02:56:31.852Z,83.95
2017-07-31T02:57:32.156Z,83.95
2017-07-31T02:58:31.828Z,83.76
2017-07-31T02:59:32.132Z,83.38
2017-07-31T03:00:32.114Z,83.86
2017-07-31T03:01:32.110Z,83.67
2017-07-31T03:02:31.779Z,83.67
2017-07-31T03:03:32.086Z,84.05
2017-07-31T03:04:31.760Z,83.95
2017-07-31T03:05:32.060Z,84.05
2017-07-31T03:06:32.052Z,84.11
2017-07-31T03:07:31.727Z,84.05
2017-07-31T03:08:32.026Z,84.63
2017-07-31T03:09:31.706Z,83.95
2017-07-31T03:10:32.008Z,84.3
2017-07-31T03:11:32.003Z,84.11
2017-07-31T03:12:31.982Z,84.39
2017-07-31T03:13:31.659Z,84.58
2017-07-31T03:14:31.963Z,83.92
2017-07-31T03:15:31.945Z,83.82
2017-07-31T03:16:31.937Z,83.72
2017-07-31T03:17:31.926Z,83.44
2017-07-31T03:18:31.601Z,82.86
2017-07-31T03:19:31.593Z,82.76
2017-07-31T03:20:31.891Z,83.05
2017-07-31T03:21:31.876Z,82.48
2017-07-31T03:22:31.867Z,82.76
2017-07-31T03:23:31.855Z,82.86
2017-07-31T03:24:31.844Z,82.57
2017-07-31T03:25:31.521Z,82.29
2017-07-31T03:26:31.820Z,82.29
2017-07-31T03:27:31.496Z,81.9
2017-07-31T03:28:31.796Z,82
2017-07-31T03:29:31.785Z,81.9
2017-07-31T03:30:31.461Z,81.71
2017-07-31T03:31:31.451Z,81.81
2017-07-31T03:32:31.752Z,81.52
2017-07-31T03:33:31.738Z,81.52
2017-07-31T03:34:31.418Z,81.23
2017-07-31T03:35:31.403Z,80.94
2017-07-31T03:36:31.706Z,80.85
2017-07-31T03:37:31.698Z,80.85
2017-07-31T03:38:31.373Z,80.76
2017-07-31T03:39:31.359Z,80.56
2017-07-31T03:40:31.657Z,80.85
2017-07-31T03:41:31.650Z,80.85
2017-07-31T03:42:31.634Z,80.37
2017-07-31T03:43:31.624Z,80.37
2017-07-31T03:44:31.617Z,80.47
2017-07-31T03:45:31.305Z,80.47
2017-07-31T03:46:31.591Z,80.66
2017-07-31T03:47:31.265Z,80.56
2017-07-31T03:48:31.253Z,80.47
2017-07-31T03:49:31.556Z,80.18
2017-07-31T03:50:31.547Z,80.56
2017-07-31T03:51:31.538Z,79.99
2017-07-31T03:52:31.250Z,79.99
2017-07-31T03:53:31.198Z,80.27
2017-07-31T03:54:31.502Z,80.27
2017-07-31T03:55:31.488Z,80.37
2017-07-31T03:56:31.177Z,80.27
2017-07-31T03:57:31.467Z,80.18
2017-07-31T03:58:31.143Z,80.27
2017-07-31T03:59:31.443Z,80.08
2017-07-31T04:00:31.429Z,79.89
2017-07-31T04:01:31.415Z,79.99
2017-07-31T04:02:31.092Z,79.8
2017-07-31T04:03:31.080Z,79.51
2017-07-31T04:04:31.073Z,78.84
2017-07-31T04:05:31.376Z,78.55
2017-07-31T04:06:31.406Z,78.45
2017-07-31T04:07:31.350Z,78.45
2017-07-31T04:08:31.338Z,77.97
2017-07-31T04:09:31.324Z,78.07
2017-07-31T04:10:31.316Z,76.92
2017-07-31T04:11:31.302Z,76.64
2017-07-31T04:12:31.292Z,76.25
2017-07-31T04:13:30.963Z,75.96
2017-07-31T04:14:30.960Z,76.25
2017-07-31T04:15:30.945Z,76.44
2017-07-31T04:16:31.243Z,76.25
2017-07-31T04:17:31.265Z,75.77
2017-07-31T04:18:30.909Z,76.06
2017-07-31T04:19:30.897Z,76.25
2017-07-31T04:20:31.199Z,76.06
2017-07-31T04:21:30.874Z,75.77
2017-07-31T04:22:31.196Z,75.96
2017-07-31T04:23:31.170Z,75.96
2017-07-31T04:24:31.153Z,75.58
2017-07-31T04:25:31.143Z,75.77
2017-07-31T04:26:31.131Z,75.96
2017-07-31T04:27:31.323Z,75.48
2017-07-31T04:28:31.107Z,75.77
2017-07-31T04:29:30.784Z,75.77
2017-07-31T04:30:31.083Z,75.39
2017-07-31T04:31:31.071Z,75.43
2017-07-31T04:32:31.064Z,75.01
2017-07-31T04:33:31.050Z,74.43
2017-07-31T04:34:31.050Z,74.85
2017-07-31T04:35:31.030Z,74.91
2017-07-31T04:36:31.028Z,74.76
2017-07-31T04:37:30.692Z,74.76
2017-07-31T04:38:30.683Z,73.9
2017-07-31T04:39:30.669Z,73.99
2017-07-31T04:40:30.969Z,74.37
2017-07-31T04:41:30.648Z,74.18
2017-07-31T04:42:30.953Z,74.08
2017-07-31T04:43:30.942Z,74.05
2017-07-31T04:44:30.927Z,74.47
2017-07-31T04:45:30.914Z,74.27
2017-07-31T04:46:30.906Z,74.47
2017-07-31T04:47:30.581Z,73.99
2017-07-31T04:48:30.880Z,74.27
2017-07-31T04:49:30.873Z,74.47
2017-07-31T04:50:30.547Z,74.27
2017-07-31T04:51:30.852Z,74.08
2017-07-31T04:52:30.522Z,73.9
2017-07-31T04:53:30.829Z,73.99
2017-07-31T04:54:30.503Z,73.61
2017-07-31T04:55:30.809Z,73.7
2017-07-31T04:56:30.790Z,73.7
2017-07-31T04:57:30.778Z,72.94
2017-07-31T04:58:30.460Z,73.41
2017-07-31T04:59:30.780Z,72.64
2017-07-31T05:00:30.765Z,73.03
2017-07-31T05:01:30.742Z,72.84
2017-07-31T05:02:30.726Z,73.03
2017-07-31T05:03:30.726Z,73.41
2017-07-31T05:04:30.389Z,72.27
2017-07-31T05:05:30.693Z,72.17
2017-07-31T05:06:30.882Z,72.45
2017-07-31T05:07:30.670Z,72.74
2017-07-31T05:08:30.342Z,72.17
2017-07-31T05:09:30.644Z,72.07
2017-07-31T05:10:30.637Z,71.98
2017-07-31T05:11:30.631Z,71.88
2017-07-31T05:12:30.611Z,72.07
2017-07-31T05:13:30.289Z,72.01
2017-07-31T05:14:30.279Z,72.17
2017-07-31T05:15:30.611Z,71.5
2017-07-31T05:16:30.257Z,71.31
2017-07-31T05:17:30.556Z,71.4
2017-07-31T05:18:30.549Z,71.4
2017-07-31T05:19:30.224Z,71.5
2017-07-31T05:20:30.523Z,71.53
2017-07-31T05:21:30.406Z,71.78
2017-07-31T05:22:30.195Z,71.44
2017-07-31T05:23:30.179Z,71.25
2017-07-31T05:24:30.483Z,70.96
2017-07-31T05:25:30.477Z,70.76
2017-07-31T05:26:30.458Z,70.96
2017-07-31T05:27:30.135Z,70.86
2017-07-31T05:28:30.125Z,70.76
2017-07-31T05:29:30.425Z,70.76
2017-07-31T05:30:30.413Z,70.29
2017-07-31T05:31:30.406Z,70.67
2017-07-31T05:32:30.083Z,70.29
2017-07-31T05:33:30.072Z,70
2017-07-31T05:34:30.374Z,69.52
2017-07-31T05:35:30.360Z,69.13
2017-07-31T05:36:30.037Z,68.95
2017-07-31T05:37:30.026Z,68.95
2017-07-31T05:38:30.326Z,68.27
2017-07-31T05:39:30.323Z,68.37
2017-07-31T05:40:30.307Z,68.18
2017-07-31T05:41:29.982Z,67.63
2017-07-31T05:42:30.287Z,67.54
2017-07-31T05:43:30.272Z,67.44
2017-07-31T05:44:29.949Z,67.32
2017-07-31T05:45:29.938Z,66.49
2017-07-31T05:46:30.239Z,66.58
2017-07-31T05:47:29.918Z,66.67
2017-07-31T05:48:30.218Z,66.19
2017-07-31T05:49:30.210Z,66.1
2017-07-31T05:50:30.197Z,65.52
2017-07-31T05:51:29.877Z,65.52
2017-07-31T05:52:29.871Z,65.72
2017-07-31T05:53:29.868Z,65.52
2017-07-31T05:54:29.857Z,65.81
2017-07-31T05:55:30.146Z,66
2017-07-31T05:56:30.135Z,65.91
2017-07-31T05:57:29.810Z,66
2017-07-31T05:58:30.114Z,65.91
2017-07-31T05:59:29.791Z,65.81
2017-07-31T06:00:29.780Z,65.62
2017-07-31T06:01:29.769Z,66.39
2017-07-31T06:02:30.079Z,66.58
2017-07-31T06:03:30.059Z,66.49
2017-07-31T06:04:29.740Z,66.58
2017-07-31T06:05:30.039Z,67.19
2017-07-31T06:06:29.717Z,67.25
2017-07-31T06:07:30.026Z,67.09
2017-07-31T06:08:29.694Z,67.67
2017-07-31T06:09:29.686Z,67.57
2017-07-31T06:10:29.988Z,67.76
2017-07-31T06:11:29.974Z,68.44
2017-07-31T06:12:29.967Z,68.82
2017-07-31T06:13:29.646Z,69.2
2017-07-31T06:14:29.950Z,69.01
2017-07-31T06:15:29.944Z,69.49
2017-07-31T06:16:29.928Z,69.2
2017-07-31T06:17:29.913Z,69.3
2017-07-31T06:18:29.594Z,69.3
2017-07-31T06:19:29.897Z,69.01
2017-07-31T06:20:29.583Z,69.68
2017-07-31T06:21:29.565Z,69.49
2017-07-31T06:22:29.550Z,69.62
2017-07-31T06:23:29.850Z,69.49
2017-07-31T06:24:29.531Z,69.43
2017-07-31T06:25:29.525Z,69.43
2017-07-31T06:26:29.821Z,69.43
2017-07-31T06:27:29.500Z,70.01
2017-07-31T06:28:29.491Z,71.93
2017-07-31T06:29:29.793Z,72.5
2017-07-31T06:30:29.784Z,72.31
2017-07-31T06:31:29.773Z,73.56
2017-07-31T06:32:29.447Z,73.85
2017-07-31T06:33:29.754Z,74.81
2017-07-31T06:34:29.433Z,75.48
2017-07-31T06:35:29.473Z,75.29
2017-07-31T06:36:29.719Z,75.38
2017-07-31T06:37:29.715Z,75.48
2017-07-31T06:38:29.700Z,76.25
2017-07-31T06:39:29.690Z,77.25
2017-07-31T06:40:29.376Z,77.92
2017-07-31T06:41:29.673Z,77.53
2017-07-31T06:42:29.659Z,77.34
2017-07-31T06:43:29.345Z,77.53
2017-07-31T06:44:29.644Z,77.92
2017-07-31T06:45:29.322Z,76.48
2017-07-31T06:46:29.625Z,78.5
2017-07-31T06:47:29.611Z,79.84
2017-07-31T06:48:29.600Z,79.07
2017-07-31T06:49:29.277Z,79.17
2017-07-31T06:50:29.581Z,77.63
2017-07-31T06:51:29.571Z,77.92
2017-07-31T06:52:29.251Z,78.98
2017-07-31T06:53:29.554Z,81.04
2017-07-31T06:54:29.552Z,82.48
2017-07-31T06:55:29.534Z,83.15
2017-07-31T06:56:29.529Z,82.29
2017-07-31T06:57:29.518Z,81.9
2017-07-31T06:58:29.504Z,81.71
2017-07-31T06:59:29.185Z,81.42
2017-07-31T07:00:29.175Z,81.04
2017-07-31T07:01:29.480Z,81.13
2017-07-31T07:02:29.669Z,83.06
2017-07-31T07:03:29.460Z,81.37
2017-07-31T07:04:29.135Z,82.9
2017-07-31T07:05:29.437Z,83
2017-07-31T07:06:29.117Z,84.44
2017-07-31T07:07:29.417Z,87.42
2017-07-31T07:08:29.435Z,86.41
2017-07-31T07:09:29.413Z,86.12
2017-07-31T07:10:29.081Z,91.6
2017-07-31T07:11:29.387Z,93.72
2017-07-31T07:12:29.373Z,94.01
2017-07-31T07:13:29.365Z,93.33
2017-07-31T07:14:29.358Z,93.72
2017-07-31T07:15:29.039Z,93.53
2017-07-31T07:16:29.227Z,93.15
2017-07-31T07:17:29.016Z,93.91
2017-07-31T07:18:29.328Z,93.05
2017-07-31T07:19:29.316Z,93.15
2017-07-31T07:20:28.990Z,95.74
2017-07-31T07:21:29.188Z,94.49
2017-07-31T07:22:28.975Z,93.33
2017-07-31T07:23:29.271Z,94.2
2017-07-31T07:24:29.264Z,91.99
2017-07-31T07:25:29.258Z,91.89
2017-07-31T07:26:29.251Z,94.4
2017-07-31T07:27:29.242Z,93.33
2017-07-31T07:28:29.231Z,94.68
2017-07-31T07:29:28.909Z,94.4
2017-07-31T07:30:29.219Z,94.82
2017-07-31T07:31:28.892Z,96.22
2017-07-31T07:32:28.888Z,96.37
2017-07-31T07:33:28.876Z,97.04
2017-07-31T07:34:29.176Z,97.28
2017-07-31T07:35:28.854Z,96.32
2017-07-31T07:36:29.158Z,99.88
2017-07-31T07:37:29.151Z,97.42
2017-07-31T07:38:29.146Z,99.99
2017-07-31T07:39:29.135Z,99.99
2017-07-31T07:40:29.128Z,99.99
2017-07-31T07:41:28.827Z,99.99
2017-07-31T07:42:29.115Z,99.99
2017-07-31T07:43:28.798Z,99.99
2017-07-31T07:44:29.099Z,99.99
2017-07-31T07:45:29.092Z,99.99
2017-07-31T07:46:28.778Z,99.99
2017-07-31T07:47:28.770Z,99.99
2017-07-31T07:48:29.078Z,99.99
2017-07-31T07:49:28.756Z,99.99
2017-07-31T07:50:28.751Z,99.99
2017-07-31T07:51:29.059Z,99.99
2017-07-31T07:52:29.055Z,99.99
2017-07-31T07:53:29.050Z,99.99
2017-07-31T07:54:29.051Z,99.99
2017-07-31T07:55:29.065Z,99.99
2017-07-31T07:56:29.040Z,99.95
2017-07-31T07:57:29.034Z,96.98
2017-07-31T07:58:29.033Z,85.94
2017-07-31T07:59:28.714Z,87.06
2017-07-31T08:00:28.708Z,83.21
2017-07-31T08:01:29.022Z,82.67
2017-07-31T08:02:29.016Z,79.45
2017-07-31T08:03:29.017Z,79.9
2017-07-31T08:04:29.010Z,81.75
2017-07-31T08:05:28.691Z,82.62
2017-07-31T08:06:29.001Z,78.58
2017-07-31T08:07:29.003Z,79.35
2017-07-31T08:08:28.687Z,81.56
2017-07-31T08:09:28.693Z,84.58
2017-07-31T08:10:28.686Z,86.1
2017-07-31T08:11:28.725Z,81.92
2017-07-31T08:12:28.991Z,82.6
2017-07-31T08:13:28.989Z,84.06
2017-07-31T08:14:28.984Z,83.37
2017-07-31T08:15:28.670Z,81.53
2017-07-31T08:16:28.667Z,80.07
2017-07-31T08:17:28.975Z,78.52
2017-07-31T08:18:28.665Z,78.11
2017-07-31T08:19:28.658Z,76.2
2017-07-31T08:20:28.970Z,76.4
2017-07-31T08:21:28.970Z,77.17
2017-07-31T08:22:28.965Z,81.14
2017-07-31T08:23:43.538Z,78.85
2017-07-31T08:24:28.965Z,78.92
2017-07-31T08:25:28.959Z,78.01
2017-07-31T08:26:28.960Z,73.9
2017-07-31T08:27:28.959Z,72.67
2017-07-31T08:28:28.645Z,69.84
2017-07-31T08:29:28.955Z,69.2
2017-07-31T08:30:28.641Z,68.13
2017-07-31T08:31:28.638Z,68.23
2017-07-31T08:32:28.649Z,68.45
2017-07-31T08:33:28.949Z,66.73
2017-07-31T08:34:28.953Z,65.56
2017-07-31T08:35:28.640Z,65.63
2017-07-31T08:36:28.639Z,65.43
2017-07-31T08:37:28.947Z,66.24
2017-07-31T08:38:28.949Z,65.75
2017-07-31T08:39:28.958Z,67.41
2017-07-31T08:40:28.641Z,69.52
2017-07-31T08:41:28.948Z,70.75
2017-07-31T08:42:28.945Z,72.17
2017-07-31T08:43:28.635Z,74.18
2017-07-31T08:44:28.635Z,76.05
2017-07-31T08:45:28.954Z,77.67
2017-07-31T08:46:28.950Z,77.08
2017-07-31T08:47:28.939Z,79.66
2017-07-31T08:48:28.622Z,80.5
2017-07-31T08:49:28.632Z,83.22
2017-07-31T08:50:28.936Z,80.4
2017-07-31T08:51:28.934Z,80.17
2017-07-31T08:52:28.930Z,79.78
2017-07-31T08:53:28.972Z,79.82
2017-07-31T08:54:28.614Z,78.91
2017-07-31T08:55:28.609Z,78.91
2017-07-31T08:56:28.917Z,78.56
2017-07-31T08:57:28.914Z,77.98
2017-07-31T08:58:28.910Z,78.27
2017-07-31T08:59:28.911Z,77.49
2017-07-31T09:00:28.907Z,79.63
2017-07-31T09:01:28.591Z,77.94
2017-07-31T09:02:28.902Z,80.75
2017-07-31T09:03:28.596Z,78.81
2017-07-31T09:04:28.596Z,78.81
2017-07-31T09:05:28.576Z,79.25
2017-07-31T09:06:28.888Z,78.38
2017-07-31T09:07:28.890Z,80.09
2017-07-31T09:08:28.562Z,82.9
2017-07-31T09:09:28.557Z,83.48
2017-07-31T09:10:28.561Z,81.73
2017-07-31T09:11:28.550Z,82.95
2017-07-31T09:12:28.544Z,83.15
2017-07-31T09:13:28.538Z,83.44
2017-07-31T09:14:28.534Z,84.69
2017-07-31T09:15:28.842Z,86.69
2017-07-31T09:16:28.841Z,85.91
2017-07-31T09:17:28.526Z,85.14
2017-07-31T09:18:28.824Z,86.01
2017-07-31T09:19:28.867Z,84.46
2017-07-31T09:20:28.813Z,83.59
2017-07-31T09:21:29.016Z,83.78
2017-07-31T09:22:28.809Z,84.36
2017-07-31T09:23:28.488Z,83.4
2017-07-31T09:24:28.793Z,81.85
2017-07-31T09:25:28.480Z,82.33
2017-07-31T09:26:28.788Z,83.88
2017-07-31T09:27:28.779Z,85.14
2017-07-31T09:28:28.775Z,88.62
2017-07-31T09:29:28.770Z,86.4
2017-07-31T09:30:28.453Z,83.01
2017-07-31T09:31:28.762Z,85.62
2017-07-31T09:32:28.441Z,82.43
2017-07-31T09:33:28.749Z,84.17
2017-07-31T09:34:28.428Z,82.91
2017-07-31T09:35:28.735Z,85.42
2017-07-31T09:36:28.416Z,84.94
2017-07-31T09:37:28.459Z,87.95
2017-07-31T09:38:28.406Z,86.59
2017-07-31T09:39:28.709Z,87.55
2017-07-31T09:40:28.708Z,86.88
2017-07-31T09:41:28.391Z,85.24
2017-07-31T09:42:28.691Z,90.07
2017-07-31T09:43:28.708Z,85.62
2017-07-31T09:44:28.683Z,85.91
2017-07-31T09:45:28.672Z,87.95
2017-07-31T09:46:28.353Z,88.43
2017-07-31T09:47:28.352Z,88.13
2017-07-31T09:48:28.342Z,86.88
2017-07-31T09:49:28.340Z,85.52
2017-07-31T09:50:28.329Z,86.4
2017-07-31T09:51:28.637Z,88.33
2017-07-31T09:52:28.318Z,88.23
2017-07-31T09:53:28.624Z,88.71
2017-07-31T09:54:28.308Z,89.69
2017-07-31T09:55:28.613Z,89.88
2017-07-31T09:56:28.296Z,93.17
2017-07-31T09:57:28.855Z,97.23
2017-07-31T09:58:28.624Z,93.26
2017-07-31T09:59:28.310Z,91.91
2017-07-31T10:00:28.282Z,94.33
2017-07-31T10:01:28.632Z,92.58
2017-07-31T10:02:28.258Z,93.46
2017-07-31T10:03:28.259Z,95.87
2017-07-31T10:04:28.250Z,91.04
2017-07-31T10:05:28.566Z,93.75
2017-07-31T10:06:28.565Z,95.44
2017-07-31T10:07:28.545Z,95.15
2017-07-31T10:08:28.227Z,95.25
2017-07-31T10:09:28.543Z,92.64
2017-07-31T10:10:28.528Z,93.65
2017-07-31T10:11:28.210Z,96.75
2017-07-31T10:12:28.207Z,96.75
2017-07-31T10:13:28.206Z,96.55
2017-07-31T10:14:28.507Z,94.43
2017-07-31T10:15:28.183Z,94.47
2017-07-31T10:16:28.211Z,86.92
2017-07-31T10:17:28.488Z,84.35
2017-07-31T10:18:28.486Z,86.87
2017-07-31T10:19:28.480Z,86
2017-07-31T10:20:28.166Z,85.41
2017-07-31T10:21:28.468Z,86.48
2017-07-31T10:22:28.474Z,81.73
2017-07-31T10:23:28.152Z,83
2017-07-31T10:24:28.457Z,83.96
2017-07-31T10:25:28.137Z,83.28
2017-07-31T10:26:28.444Z,78.58
2017-07-31T10:27:28.439Z,78.19
2017-07-31T10:28:28.433Z,76.45
2017-07-31T10:29:28.432Z,70.96
2017-07-31T10:30:28.427Z,70.09
2017-07-31T10:31:28.109Z,70.41
2017-07-31T10:32:28.420Z,68.02
2017-07-31T10:33:28.419Z,66.69
2017-07-31T10:34:28.102Z,65.66
2017-07-31T10:35:28.102Z,64.59
2017-07-31T10:36:28.416Z,61.48
2017-07-31T10:37:28.413Z,63.07
2017-07-31T10:38:28.417Z,64.62
2017-07-31T10:39:28.408Z,64.2
2017-07-31T10:40:28.096Z,62.97
2017-07-31T10:41:28.407Z,64.53
2017-07-31T10:42:28.406Z,62.61
2017-07-31T10:43:28.410Z,62.35
2017-07-31T10:44:28.408Z,62.61
2017-07-31T10:45:28.406Z,63.23
2017-07-31T10:46:28.417Z,63.32
2017-07-31T10:47:28.410Z,61.9
2017-07-31T10:48:28.101Z,59.88
2017-07-31T10:49:28.450Z,62.51
2017-07-31T10:50:28.102Z,61.44
2017-07-31T10:51:28.422Z,58.61
2017-07-31T10:52:28.115Z,59.69
2017-07-31T10:53:28.109Z,60.63
2017-07-31T10:54:28.112Z,59.82
2017-07-31T10:55:28.424Z,58.56
2017-07-31T10:56:28.156Z,59.82
2017-07-31T10:57:28.433Z,59.21
2017-07-31T10:58:28.482Z,59.79
2017-07-31T10:59:28.119Z,59.69
2017-07-31T11:00:28.122Z,61.12
2017-07-31T11:01:28.156Z,61.8
2017-07-31T11:02:28.439Z,62.07
2017-07-31T11:03:28.438Z,61.02
2017-07-31T11:04:28.128Z,61.02
2017-07-31T11:05:28.125Z,59.83
2017-07-31T11:06:28.438Z,58.76
2017-07-31T11:07:28.437Z,57.6
2017-07-31T11:08:28.123Z,57.89
2017-07-31T11:09:28.450Z,59.08
2017-07-31T11:10:28.128Z,56.46
2017-07-31T11:11:28.437Z,56.65
2017-07-31T11:12:28.438Z,54.35
2017-07-31T11:13:28.437Z,55.51
2017-07-31T11:14:28.123Z,54.74
2017-07-31T11:15:28.443Z,55.74
2017-07-31T11:16:28.124Z,57.26
2017-07-31T11:17:28.463Z,57.75
2017-07-31T11:18:28.443Z,57.59
2017-07-31T11:19:28.441Z,56.64
2017-07-31T11:20:28.129Z,55.66
2017-07-31T11:21:28.646Z,54.62
2017-07-31T11:22:28.446Z,54.43
2017-07-31T11:23:28.448Z,52.4
2017-07-31T11:24:28.451Z,56.01
2017-07-31T11:25:28.449Z,53.38
2017-07-31T11:26:28.454Z,53.38
2017-07-31T11:27:28.140Z,52.31
2017-07-31T11:28:28.465Z,53.28
2017-07-31T11:29:28.465Z,53.19
2017-07-31T11:30:28.154Z,53.19
2017-07-31T11:31:28.158Z,53.99
2017-07-31T11:32:28.159Z,52.63
2017-07-31T11:33:28.160Z,52.53
2017-07-31T11:34:28.473Z,52.7
2017-07-31T11:35:28.484Z,53.75
2017-07-31T11:36:28.486Z,52.77
2017-07-31T11:37:28.487Z,53.04
2017-07-31T11:38:28.488Z,52.43
2017-07-31T11:39:28.486Z,53.2
2017-07-31T11:40:28.178Z,54.44
2017-07-31T11:41:28.492Z,54.54
2017-07-31T11:42:28.505Z,54.74
2017-07-31T11:43:28.496Z,54.54
2017-07-31T11:44:28.188Z,55.03
2017-07-31T11:46:28.189Z,54.96
2017-07-31T11:47:28.509Z,55.41
2017-07-31T11:48:28.505Z,57.75
2017-07-31T11:49:28.503Z,57.29
2017-07-31T11:50:28.509Z,57.26
2017-07-31T11:51:28.501Z,57.07
2017-07-31T11:52:28.503Z,57.43
2017-07-31T11:53:28.508Z,56.56
2017-07-31T11:54:28.191Z,57.5
2017-07-31T11:55:28.504Z,57.5
2017-07-31T11:56:28.509Z,59.05
2017-07-31T11:57:28.195Z,57.79
2017-07-31T11:58:28.204Z,59.7
2017-07-31T11:59:28.506Z,61.35
2017-07-31T12:00:28.502Z,61.74
2017-07-31T12:01:28.187Z,58.86
2017-07-31T12:02:28.220Z,59.74
2017-07-31T12:03:28.496Z,60.31
2017-07-31T12:04:28.499Z,59.74
2017-07-31T12:05:28.497Z,58.89
2017-07-31T12:06:28.187Z,58.67
2017-07-31T12:07:28.499Z,59.25
2017-07-31T12:08:28.184Z,58.47
2017-07-31T12:09:28.186Z,59.64
2017-07-31T12:10:28.497Z,60.02
2017-07-31T12:11:28.182Z,59.95
2017-07-31T12:12:28.490Z,57.62
2017-07-31T12:13:28.702Z,57.46
2017-07-31T12:14:28.181Z,58.14
2017-07-31T12:15:28.489Z,57.29
2017-07-31T12:16:28.486Z,57.42
2017-07-31T12:17:28.495Z,57.9
2017-07-31T12:18:28.179Z,57.15
2017-07-31T12:19:28.180Z,55.82
2017-07-31T12:20:28.503Z,57.47
2017-07-31T12:21:28.503Z,55.62
2017-07-31T12:22:28.500Z,53.21
2017-07-31T12:23:28.186Z,53.99
2017-07-31T12:24:28.186Z,55.62
2017-07-31T12:25:28.188Z,54.43
2017-07-31T12:26:28.198Z,56.54
2017-07-31T12:27:28.192Z,57.64
2017-07-31T12:28:28.509Z,58.03
2017-07-31T12:29:28.193Z,58.03
2017-07-31T12:30:28.515Z,57.86
2017-07-31T12:31:28.512Z,55.72
2017-07-31T12:32:28.199Z,55.82
2017-07-31T12:33:28.205Z,57.18
2017-07-31T12:34:28.201Z,56.21
2017-07-31T12:35:28.548Z,57.37
2017-07-31T12:36:28.516Z,57.09
2017-07-31T12:37:28.518Z,55.13
2017-07-31T12:38:28.524Z,54.52
2017-07-31T12:39:28.526Z,56.74
2017-07-31T12:40:28.527Z,56.84
2017-07-31T12:41:28.216Z,58.75
2017-07-31T12:42:28.526Z,57.17
2017-07-31T12:43:28.216Z,57.17
2017-07-31T12:44:28.218Z,58.53
2017-07-31T12:45:28.215Z,58.69
2017-07-31T12:46:28.528Z,57.95
2017-07-31T12:47:28.217Z,57.82
2017-07-31T12:48:28.537Z,58.01
2017-07-31T12:49:28.237Z,58.79
2017-07-31T12:50:28.222Z,57.82
2017-07-31T12:51:28.218Z,60.74
2017-07-31T12:52:28.533Z,61.32
2017-07-31T12:53:28.536Z,60.35
2017-07-31T12:54:28.228Z,59.28
2017-07-31T12:55:28.537Z,59.59
2017-07-31T12:56:28.541Z,58.72